Accueil
METAR-TAF:

METAR-TAF

Aéroports :

Dibrugarh, Inde

latitude: 27-29N, longitude: 095-01E, altitude: 110 m

Observation

Le bulletin a été fait il y a 30 minutes, à 05:30 UTC
Vent 5 kt de nord/nord-est
Température 34°C
Humidité 67%
Pression 1000 hPa
Visibilité: 5000 m
Quelques nuages à une hauteur de 2500 ft
Nuages fragmentés à une hauteur de 10000 ft
brume sèche,

METAR: VEMN 190530Z 03005KT 5000 HZ FEW025 BKN100 34/27 Q1000 NOSIG

Heure: 11:30 (06:00 UTC)

Prévision

Le bulletin a été fait il y a 1 heure et 0 minutes, à 05:00 UTC
Prévision valable du 19 à 06 UTC au 19 à 15 UTC
Vent 3 kt de nord-est
Visibilité: 5000 m
Quelques nuages à une hauteur de 2000 ft
Nuages épars à une hauteur de 10000 ft
brume sèche
Evoluant progressivement
du 19 à 07 UTC au 19 à 09 UTC
Visibilité: 6000 m
Nuages épars à une hauteur de 2500 ft

TAF: VEMN 190500Z 1906/1915 05003KT 5000 HZ FEW020 SCT100 BECMG 1907/1909 6000 SCT025

Observations et prévisions météorologiques de plus de 4000 aéroports (messages METAR et TAF).

Les stations disponibles sont représentées par des disques jaunes et rouges sur la carte.

Passer la souris dessus pour voir le nom de la station.

Cliquer dessus pour voir les observations et prévisions météorologiques.

Pour changer de carte: cliquez sur les boutons verts avec une croix noire pour zoomer, sur le bouton vert avec un tiret pour effectuer un zoom arrière, ou sur les flèches vertes pour les cartes adjacentes.


METAR-TAF: